sensor_id;sensor_type;location;lat;lon;timestamp;temperature;humidity
70184;DHT22;57554;51.546;6.776;2022-07-26T00:00:16;20.00;56.40
70184;DHT22;57554;51.546;6.776;2022-07-26T00:02:44;19.90;56.60
70184;DHT22;57554;51.546;6.776;2022-07-26T00:05:10;19.90;56.80
70184;DHT22;57554;51.546;6.776;2022-07-26T00:07:35;19.90;56.80
70184;DHT22;57554;51.546;6.776;2022-07-26T00:10:01;19.80;57.00
70184;DHT22;57554;51.546;6.776;2022-07-26T00:12:27;19.80;57.10
70184;DHT22;57554;51.546;6.776;2022-07-26T00:14:53;19.70;57.30
70184;DHT22;57554;51.546;6.776;2022-07-26T00:17:18;19.70;57.40
70184;DHT22;57554;51.546;6.776;2022-07-26T00:19:44;19.70;57.50
70184;DHT22;57554;51.546;6.776;2022-07-26T00:22:09;19.60;57.50
70184;DHT22;57554;51.546;6.776;2022-07-26T00:24:54;19.60;57.70
70184;DHT22;57554;51.546;6.776;2022-07-26T00:27:19;19.60;57.80
70184;DHT22;57554;51.546;6.776;2022-07-26T00:29:45;19.60;58.10
70184;DHT22;57554;51.546;6.776;2022-07-26T00:32:10;19.50;58.10
70184;DHT22;57554;51.546;6.776;2022-07-26T00:34:36;19.60;58.20
70184;DHT22;57554;51.546;6.776;2022-07-26T00:37:02;19.60;58.30
70184;DHT22;57554;51.546;6.776;2022-07-26T00:39:27;19.60;58.30
70184;DHT22;57554;51.546;6.776;2022-07-26T00:41:53;19.60;58.30
70184;DHT22;57554;51.546;6.776;2022-07-26T00:44:19;19.50;58.20
70184;DHT22;57554;51.546;6.776;2022-07-26T00:46:45;19.50;58.30
70184;DHT22;57554;51.546;6.776;2022-07-26T00:49:11;19.50;58.50
70184;DHT22;57554;51.546;6.776;2022-07-26T00:51:37;19.40;58.60
70184;DHT22;57554;51.546;6.776;2022-07-26T00:54:03;19.40;58.70
70184;DHT22;57554;51.546;6.776;2022-07-26T00:56:30;19.40;58.80
70184;DHT22;57554;51.546;6.776;2022-07-26T00:58:56;19.40;59.00
70184;DHT22;57554;51.546;6.776;2022-07-26T01:01:22;19.40;59.10
70184;DHT22;57554;51.546;6.776;2022-07-26T01:03:50;19.40;59.20
70184;DHT22;57554;51.546;6.776;2022-07-26T01:06:17;19.40;59.40
70184;DHT22;57554;51.546;6.776;2022-07-26T01:08:43;19.40;59.40
70184;DHT22;57554;51.546;6.776;2022-07-26T01:11:09;19.40;59.40
70184;DHT22;57554;51.546;6.776;2022-07-26T01:13:34;19.40;59.60
70184;DHT22;57554;51.546;6.776;2022-07-26T01:16:00;19.40;59.50
70184;DHT22;57554;51.546;6.776;2022-07-26T01:18:26;19.40;59.60
70184;DHT22;57554;51.546;6.776;2022-07-26T01:20:52;19.40;59.70
70184;DHT22;57554;51.546;6.776;2022-07-26T01:23:18;19.40;59.70
70184;DHT22;57554;51.546;6.776;2022-07-26T01:25:44;19.40;59.80
70184;DHT22;57554;51.546;6.776;2022-07-26T01:28:10;19.40;59.90
70184;DHT22;57554;51.546;6.776;2022-07-26T01:30:35;19.40;59.90
70184;DHT22;57554;51.546;6.776;2022-07-26T01:33:01;19.40;60.00
70184;DHT22;57554;51.546;6.776;2022-07-26T01:35:27;19.40;60.00
70184;DHT22;57554;51.546;6.776;2022-07-26T01:37:52;19.40;60.10
70184;DHT22;57554;51.546;6.776;2022-07-26T01:40:18;19.40;60.10
70184;DHT22;57554;51.546;6.776;2022-07-26T01:42:44;19.40;60.20
70184;DHT22;57554;51.546;6.776;2022-07-26T01:45:10;19.40;60.20
70184;DHT22;57554;51.546;6.776;2022-07-26T01:47:37;19.40;60.30
70184;DHT22;57554;51.546;6.776;2022-07-26T01:50:05;19.40;60.20
70184;DHT22;57554;51.546;6.776;2022-07-26T01:52:30;19.40;60.40
70184;DHT22;57554;51.546;6.776;2022-07-26T01:54:57;19.40;60.30
70184;DHT22;57554;51.546;6.776;2022-07-26T01:57:23;19.50;60.30
70184;DHT22;57554;51.546;6.776;2022-07-26T01:59:49;19.50;60.30
70184;DHT22;57554;51.546;6.776;2022-07-26T02:02:14;19.50;60.30
70184;DHT22;57554;51.546;6.776;2022-07-26T02:04:40;19.50;60.50
70184;DHT22;57554;51.546;6.776;2022-07-26T02:07:25;19.50;60.70
70184;DHT22;57554;51.546;6.776;2022-07-26T02:09:51;19.50;60.70
70184;DHT22;57554;51.546;6.776;2022-07-26T02:12:17;19.50;60.80
70184;DHT22;57554;51.546;6.776;2022-07-26T02:14:42;19.40;60.80
70184;DHT22;57554;51.546;6.776;2022-07-26T02:17:08;19.40;61.10
70184;DHT22;57554;51.546;6.776;2022-07-26T02:19:34;19.40;61.50
70184;DHT22;57554;51.546;6.776;2022-07-26T02:21:59;19.40;61.70
70184;DHT22;57554;51.546;6.776;2022-07-26T02:24:26;19.40;61.20
70184;DHT22;57554;51.546;6.776;2022-07-26T02:26:54;19.40;61.10
70184;DHT22;57554;51.546;6.776;2022-07-26T02:29:19;19.40;61.30
70184;DHT22;57554;51.546;6.776;2022-07-26T02:31:46;19.30;61.30
70184;DHT22;57554;51.546;6.776;2022-07-26T02:34:11;19.30;61.30
70184;DHT22;57554;51.546;6.776;2022-07-26T02:36:37;19.30;61.30
70184;DHT22;57554;51.546;6.776;2022-07-26T02:39:03;19.30;61.40
70184;DHT22;57554;51.546;6.776;2022-07-26T02:41:29;19.20;61.60
70184;DHT22;57554;51.546;6.776;2022-07-26T02:43:54;19.20;61.90
70184;DHT22;57554;51.546;6.776;2022-07-26T02:46:20;19.20;62.00
70184;DHT22;57554;51.546;6.776;2022-07-26T02:48:45;19.20;62.20
70184;DHT22;57554;51.546;6.776;2022-07-26T02:51:11;19.20;62.10
70184;DHT22;57554;51.546;6.776;2022-07-26T02:53:37;19.20;62.10
70184;DHT22;57554;51.546;6.776;2022-07-26T02:56:03;19.20;62.00
70184;DHT22;57554;51.546;6.776;2022-07-26T02:58:28;19.20;62.00
70184;DHT22;57554;51.546;6.776;2022-07-26T03:00:54;19.20;62.10
70184;DHT22;57554;51.546;6.776;2022-07-26T03:03:19;19.20;62.20
70184;DHT22;57554;51.546;6.776;2022-07-26T03:05:45;19.20;62.30
70184;DHT22;57554;51.546;6.776;2022-07-26T03:08:11;19.20;62.40
70184;DHT22;57554;51.546;6.776;2022-07-26T03:10:36;19.20;62.50
70184;DHT22;57554;51.546;6.776;2022-07-26T03:13:03;19.20;62.50
70184;DHT22;57554;51.546;6.776;2022-07-26T03:15:28;19.20;62.60
70184;DHT22;57554;51.546;6.776;2022-07-26T03:17:54;19.20;62.80
70184;DHT22;57554;51.546;6.776;2022-07-26T03:20:19;19.20;62.80
70184;DHT22;57554;51.546;6.776;2022-07-26T03:22:45;19.20;63.10
70184;DHT22;57554;51.546;6.776;2022-07-26T03:25:11;19.10;63.40
70184;DHT22;57554;51.546;6.776;2022-07-26T03:27:37;19.10;63.70
70184;DHT22;57554;51.546;6.776;2022-07-26T03:30:04;19.10;64.20
70184;DHT22;57554;51.546;6.776;2022-07-26T03:32:29;19.00;64.80
70184;DHT22;57554;51.546;6.776;2022-07-26T03:34:55;18.90;65.40
70184;DHT22;57554;51.546;6.776;2022-07-26T03:37:20;18.80;65.90
70184;DHT22;57554;51.546;6.776;2022-07-26T03:39:47;18.70;66.30
70184;DHT22;57554;51.546;6.776;2022-07-26T03:42:13;18.60;66.80
70184;DHT22;57554;51.546;6.776;2022-07-26T03:44:38;18.60;67.10
70184;DHT22;57554;51.546;6.776;2022-07-26T03:47:04;18.60;67.70
70184;DHT22;57554;51.546;6.776;2022-07-26T03:49:30;18.60;67.60
70184;DHT22;57554;51.546;6.776;2022-07-26T03:51:56;18.60;67.80
70184;DHT22;57554;51.546;6.776;2022-07-26T03:54:22;18.60;67.80
70184;DHT22;57554;51.546;6.776;2022-07-26T03:56:47;18.60;67.90
70184;DHT22;57554;51.546;6.776;2022-07-26T03:59:13;18.60;68.10
70184;DHT22;57554;51.546;6.776;2022-07-26T04:01:39;18.60;68.30
70184;DHT22;57554;51.546;6.776;2022-07-26T04:04:10;18.60;68.30
70184;DHT22;57554;51.546;6.776;2022-07-26T04:06:36;18.60;68.30
70184;DHT22;57554;51.546;6.776;2022-07-26T04:09:03;18.60;68.20
70184;DHT22;57554;51.546;6.776;2022-07-26T04:11:29;18.60;68.40
70184;DHT22;57554;51.546;6.776;2022-07-26T04:13:56;18.50;68.50
70184;DHT22;57554;51.546;6.776;2022-07-26T04:16:22;18.40;68.80
70184;DHT22;57554;51.546;6.776;2022-07-26T04:18:47;18.40;69.10
70184;DHT22;57554;51.546;6.776;2022-07-26T04:21:13;18.30;69.40
70184;DHT22;57554;51.546;6.776;2022-07-26T04:23:39;18.30;69.70
70184;DHT22;57554;51.546;6.776;2022-07-26T04:26:05;18.30;69.90
70184;DHT22;57554;51.546;6.776;2022-07-26T04:28:30;18.30;70.10
70184;DHT22;57554;51.546;6.776;2022-07-26T04:30:58;18.30;70.30
70184;DHT22;57554;51.546;6.776;2022-07-26T04:33:24;18.30;70.20
70184;DHT22;57554;51.546;6.776;2022-07-26T04:35:50;18.30;70.40
70184;DHT22;57554;51.546;6.776;2022-07-26T04:38:16;18.30;70.50
70184;DHT22;57554;51.546;6.776;2022-07-26T04:40:42;18.30;70.60
70184;DHT22;57554;51.546;6.776;2022-07-26T04:43:08;18.30;70.70
70184;DHT22;57554;51.546;6.776;2022-07-26T04:45:34;18.30;70.80
70184;DHT22;57554;51.546;6.776;2022-07-26T04:47:59;18.30;70.90
70184;DHT22;57554;51.546;6.776;2022-07-26T04:50:25;18.30;70.80
70184;DHT22;57554;51.546;6.776;2022-07-26T04:52:52;18.30;70.80
70184;DHT22;57554;51.546;6.776;2022-07-26T04:55:19;18.30;70.90
70184;DHT22;57554;51.546;6.776;2022-07-26T04:57:45;18.40;70.90
70184;DHT22;57554;51.546;6.776;2022-07-26T05:00:13;18.30;70.90
70184;DHT22;57554;51.546;6.776;2022-07-26T05:02:39;18.30;71.00
70184;DHT22;57554;51.546;6.776;2022-07-26T05:05:05;18.30;71.00
70184;DHT22;57554;51.546;6.776;2022-07-26T05:07:49;18.30;71.00
70184;DHT22;57554;51.546;6.776;2022-07-26T05:10:16;18.30;71.20
70184;DHT22;57554;51.546;6.776;2022-07-26T05:12:42;18.30;71.10
70184;DHT22;57554;51.546;6.776;2022-07-26T05:15:08;18.40;71.10
70184;DHT22;57554;51.546;6.776;2022-07-26T05:17:37;18.40;71.20
70184;DHT22;57554;51.546;6.776;2022-07-26T05:20:07;18.40;71.20
70184;DHT22;57554;51.546;6.776;2022-07-26T05:22:34;18.40;71.10
70184;DHT22;57554;51.546;6.776;2022-07-26T05:25:00;18.50;71.30
70184;DHT22;57554;51.546;6.776;2022-07-26T05:27:26;18.50;71.20
70184;DHT22;57554;51.546;6.776;2022-07-26T05:29:52;18.50;71.10
70184;DHT22;57554;51.546;6.776;2022-07-26T05:32:17;18.60;70.80
70184;DHT22;57554;51.546;6.776;2022-07-26T05:34:43;18.60;70.50
70184;DHT22;57554;51.546;6.776;2022-07-26T05:37:09;18.50;70.60
70184;DHT22;57554;51.546;6.776;2022-07-26T05:39:34;18.60;70.90
70184;DHT22;57554;51.546;6.776;2022-07-26T05:42:00;18.60;70.80
70184;DHT22;57554;51.546;6.776;2022-07-26T05:44:26;18.60;70.90
70184;DHT22;57554;51.546;6.776;2022-07-26T05:46:51;18.70;70.90
70184;DHT22;57554;51.546;6.776;2022-07-26T05:49:17;18.80;70.90
70184;DHT22;57554;51.546;6.776;2022-07-26T05:51:43;18.90;70.90
70184;DHT22;57554;51.546;6.776;2022-07-26T05:54:08;18.90;70.60
70184;DHT22;57554;51.546;6.776;2022-07-26T05:56:34;19.00;70.40
70184;DHT22;57554;51.546;6.776;2022-07-26T05:59:00;19.00;70.20
70184;DHT22;57554;51.546;6.776;2022-07-26T06:01:26;19.00;69.90
70184;DHT22;57554;51.546;6.776;2022-07-26T06:03:53;19.10;69.90
70184;DHT22;57554;51.546;6.776;2022-07-26T06:06:19;19.20;69.80
70184;DHT22;57554;51.546;6.776;2022-07-26T06:08:45;19.20;69.60
70184;DHT22;57554;51.546;6.776;2022-07-26T06:11:10;19.20;69.40
70184;DHT22;57554;51.546;6.776;2022-07-26T06:13:36;19.20;69.30
70184;DHT22;57554;51.546;6.776;2022-07-26T06:16:02;19.20;69.30
70184;DHT22;57554;51.546;6.776;2022-07-26T06:18:27;19.20;69.50
70184;DHT22;57554;51.546;6.776;2022-07-26T06:20:53;19.20;69.50
70184;DHT22;57554;51.546;6.776;2022-07-26T06:23:20;19.30;69.40
70184;DHT22;57554;51.546;6.776;2022-07-26T06:25:45;19.30;69.20
70184;DHT22;57554;51.546;6.776;2022-07-26T06:28:11;19.40;69.00
70184;DHT22;57554;51.546;6.776;2022-07-26T06:30:38;19.40;68.80
70184;DHT22;57554;51.546;6.776;2022-07-26T06:33:04;19.60;68.80
70184;DHT22;57554;51.546;6.776;2022-07-26T06:35:30;19.80;68.30
70184;DHT22;57554;51.546;6.776;2022-07-26T06:37:57;19.80;67.80
70184;DHT22;57554;51.546;6.776;2022-07-26T06:40:24;19.90;67.90
70184;DHT22;57554;51.546;6.776;2022-07-26T06:42:50;20.10;67.40
70184;DHT22;57554;51.546;6.776;2022-07-26T06:45:15;20.30;66.90
70184;DHT22;57554;51.546;6.776;2022-07-26T06:47:41;20.50;66.70
70184;DHT22;57554;51.546;6.776;2022-07-26T06:50:07;20.70;66.50
70184;DHT22;57554;51.546;6.776;2022-07-26T06:52:33;21.00;65.70
70184;DHT22;57554;51.546;6.776;2022-07-26T06:54:59;21.20;64.50
70184;DHT22;57554;51.546;6.776;2022-07-26T06:57:25;21.30;63.70
70184;DHT22;57554;51.546;6.776;2022-07-26T06:59:51;21.10;63.40
70184;DHT22;57554;51.546;6.776;2022-07-26T07:02:17;21.10;63.70
70184;DHT22;57554;51.546;6.776;2022-07-26T07:04:43;21.00;64.10
70184;DHT22;57554;51.546;6.776;2022-07-26T07:07:09;21.00;64.00
70184;DHT22;57554;51.546;6.776;2022-07-26T07:09:35;21.00;63.30
70184;DHT22;57554;51.546;6.776;2022-07-26T07:12:03;21.00;63.30
70184;DHT22;57554;51.546;6.776;2022-07-26T07:14:29;21.00;63.20
70184;DHT22;57554;51.546;6.776;2022-07-26T07:16:55;21.00;63.60
70184;DHT22;57554;51.546;6.776;2022-07-26T07:19:22;21.20;63.50
70184;DHT22;57554;51.546;6.776;2022-07-26T07:21:48;21.30;63.20
70184;DHT22;57554;51.546;6.776;2022-07-26T07:24:14;21.40;62.70
70184;DHT22;57554;51.546;6.776;2022-07-26T07:26:40;21.40;62.20
70184;DHT22;57554;51.546;6.776;2022-07-26T07:29:06;21.40;61.90
70184;DHT22;57554;51.546;6.776;2022-07-26T07:31:34;21.40;61.70
70184;DHT22;57554;51.546;6.776;2022-07-26T07:34:00;21.30;61.90
70184;DHT22;57554;51.546;6.776;2022-07-26T07:36:25;21.40;62.00
70184;DHT22;57554;51.546;6.776;2022-07-26T07:38:51;21.40;61.20
70184;DHT22;57554;51.546;6.776;2022-07-26T07:41:16;21.50;61.60
70184;DHT22;57554;51.546;6.776;2022-07-26T07:43:43;21.60;61.00
70184;DHT22;57554;51.546;6.776;2022-07-26T07:46:09;21.90;61.30
70184;DHT22;57554;51.546;6.776;2022-07-26T07:48:36;22.20;59.80
70184;DHT22;57554;51.546;6.776;2022-07-26T07:51:02;22.50;58.90
70184;DHT22;57554;51.546;6.776;2022-07-26T07:53:28;22.60;58.00
70184;DHT22;57554;51.546;6.776;2022-07-26T07:55:53;22.50;56.40
70184;DHT22;57554;51.546;6.776;2022-07-26T07:58:19;22.50;57.10
70184;DHT22;57554;51.546;6.776;2022-07-26T08:00:45;22.60;57.70
70184;DHT22;57554;51.546;6.776;2022-07-26T08:03:11;22.90;56.60
70184;DHT22;57554;51.546;6.776;2022-07-26T08:05:37;23.10;54.60
70184;DHT22;57554;51.546;6.776;2022-07-26T08:08:03;23.10;54.20
70184;DHT22;57554;51.546;6.776;2022-07-26T08:10:29;22.90;54.70
70184;DHT22;57554;51.546;6.776;2022-07-26T08:12:55;22.70;54.20
70184;DHT22;57554;51.546;6.776;2022-07-26T08:15:21;22.70;54.40
70184;DHT22;57554;51.546;6.776;2022-07-26T08:17:48;22.90;54.30
70184;DHT22;57554;51.546;6.776;2022-07-26T08:20:14;23.20;54.20
70184;DHT22;57554;51.546;6.776;2022-07-26T08:22:41;23.40;52.60
70184;DHT22;57554;51.546;6.776;2022-07-26T08:25:07;23.40;52.70
70184;DHT22;57554;51.546;6.776;2022-07-26T08:27:33;23.30;51.80
70184;DHT22;57554;51.546;6.776;2022-07-26T08:29:59;23.10;51.80
70184;DHT22;57554;51.546;6.776;2022-07-26T08:32:25;23.00;51.40
70184;DHT22;57554;51.546;6.776;2022-07-26T08:34:50;22.80;51.70
70184;DHT22;57554;51.546;6.776;2022-07-26T08:37:16;22.60;52.30
70184;DHT22;57554;51.546;6.776;2022-07-26T08:39:42;22.50;52.60
70184;DHT22;57554;51.546;6.776;2022-07-26T08:42:18;22.40;52.70
70184;DHT22;57554;51.546;6.776;2022-07-26T08:44:45;22.40;52.00
70184;DHT22;57554;51.546;6.776;2022-07-26T08:47:21;22.40;52.50
70184;DHT22;57554;51.546;6.776;2022-07-26T08:49:47;22.30;52.80
70184;DHT22;57554;51.546;6.776;2022-07-26T08:52:14;22.30;53.80
70184;DHT22;57554;51.546;6.776;2022-07-26T08:54:48;22.20;54.60
70184;DHT22;57554;51.546;6.776;2022-07-26T08:57:14;22.30;54.90
70184;DHT22;57554;51.546;6.776;2022-07-26T08:59:39;22.30;54.60
70184;DHT22;57554;51.546;6.776;2022-07-26T09:02:08;22.30;54.10
70184;DHT22;57554;51.546;6.776;2022-07-26T09:04:36;22.50;53.30
70184;DHT22;57554;51.546;6.776;2022-07-26T09:07:08;22.80;54.00
70184;DHT22;57554;51.546;6.776;2022-07-26T09:09:37;23.40;53.00
70184;DHT22;57554;51.546;6.776;2022-07-26T09:12:19;23.80;51.30
70184;DHT22;57554;51.546;6.776;2022-07-26T09:14:46;24.10;50.40
70184;DHT22;57554;51.546;6.776;2022-07-26T09:17:17;24.30;49.70
70184;DHT22;57554;51.546;6.776;2022-07-26T09:19:44;24.30;48.50
70184;DHT22;57554;51.546;6.776;2022-07-26T09:22:13;24.20;48.40
70184;DHT22;57554;51.546;6.776;2022-07-26T09:24:44;24.00;48.20
70184;DHT22;57554;51.546;6.776;2022-07-26T09:27:12;23.70;49.30
70184;DHT22;57554;51.546;6.776;2022-07-26T09:32:29;23.20;49.90
70184;DHT22;57554;51.546;6.776;2022-07-26T09:35:07;23.00;50.70
70184;DHT22;57554;51.546;6.776;2022-07-26T09:37:40;22.90;51.60
70184;DHT22;57554;51.546;6.776;2022-07-26T09:40:11;22.90;51.80
70184;DHT22;57554;51.546;6.776;2022-07-26T09:42:37;22.90;51.30
70184;DHT22;57554;51.546;6.776;2022-07-26T09:45:14;23.00;51.00
70184;DHT22;57554;51.546;6.776;2022-07-26T09:47:40;23.10;50.40
70184;DHT22;57554;51.546;6.776;2022-07-26T09:53:09;23.20;50.40
70184;DHT22;57554;51.546;6.776;2022-07-26T09:55:53;23.20;51.30
70184;DHT22;57554;51.546;6.776;2022-07-26T09:58:20;23.10;52.70
70184;DHT22;57554;51.546;6.776;2022-07-26T10:00:47;23.00;53.80
70184;DHT22;57554;51.546;6.776;2022-07-26T10:03:13;23.00;54.30
70184;DHT22;57554;51.546;6.776;2022-07-26T10:05:39;22.90;54.40
70184;DHT22;57554;51.546;6.776;2022-07-26T10:08:06;22.90;55.10
70184;DHT22;57554;51.546;6.776;2022-07-26T10:11:05;22.90;55.30
70184;DHT22;57554;51.546;6.776;2022-07-26T10:13:31;22.80;55.80
70184;DHT22;57554;51.546;6.776;2022-07-26T10:15:57;22.80;56.40
70184;DHT22;57554;51.546;6.776;2022-07-26T10:21:27;22.60;57.20
70184;DHT22;57554;51.546;6.776;2022-07-26T10:23:58;22.40;57.90
70184;DHT22;57554;51.546;6.776;2022-07-26T10:31:46;22.30;58.70
70184;DHT22;57554;51.546;6.776;2022-07-26T10:34:33;22.30;58.90
70184;DHT22;57554;51.546;6.776;2022-07-26T10:37:01;22.30;59.30
70184;DHT22;57554;51.546;6.776;2022-07-26T10:39:27;22.30;60.30
70184;DHT22;57554;51.546;6.776;2022-07-26T10:42:05;22.30;60.70
70184;DHT22;57554;51.546;6.776;2022-07-26T10:44:35;22.50;60.70
70184;DHT22;57554;51.546;6.776;2022-07-26T10:47:11;22.60;59.90
70184;DHT22;57554;51.546;6.776;2022-07-26T10:49:57;22.70;59.60
70184;DHT22;57554;51.546;6.776;2022-07-26T10:52:29;22.90;59.60
70184;DHT22;57554;51.546;6.776;2022-07-26T10:57:40;23.40;58.50
70184;DHT22;57554;51.546;6.776;2022-07-26T11:00:14;23.60;57.80
70184;DHT22;57554;51.546;6.776;2022-07-26T11:02:41;23.90;58.20
70184;DHT22;57554;51.546;6.776;2022-07-26T11:05:10;24.30;56.60
70184;DHT22;57554;51.546;6.776;2022-07-26T11:08:07;24.60;54.50
70184;DHT22;57554;51.546;6.776;2022-07-26T11:10:40;24.90;54.00
70184;DHT22;57554;51.546;6.776;2022-07-26T11:13:11;25.20;53.90
70184;DHT22;57554;51.546;6.776;2022-07-26T11:15:43;25.40;53.00
70184;DHT22;57554;51.546;6.776;2022-07-26T11:20:39;25.90;52.00
70184;DHT22;57554;51.546;6.776;2022-07-26T11:23:22;26.20;50.90
70184;DHT22;57554;51.546;6.776;2022-07-26T11:26:04;26.50;50.80
70184;DHT22;57554;51.546;6.776;2022-07-26T11:28:48;26.70;49.80
70184;DHT22;57554;51.546;6.776;2022-07-26T11:31:14;26.90;49.90
70184;DHT22;57554;51.546;6.776;2022-07-26T11:33:42;27.10;49.20
70184;DHT22;57554;51.546;6.776;2022-07-26T11:36:09;27.20;48.40
70184;DHT22;57554;51.546;6.776;2022-07-26T11:41:11;27.40;48.70
70184;DHT22;57554;51.546;6.776;2022-07-26T11:43:40;27.50;46.90
70184;DHT22;57554;51.546;6.776;2022-07-26T11:46:05;27.50;46.30
70184;DHT22;57554;51.546;6.776;2022-07-26T11:48:31;27.50;46.70
70184;DHT22;57554;51.546;6.776;2022-07-26T11:51:16;27.50;45.50
70184;DHT22;57554;51.546;6.776;2022-07-26T11:53:42;27.50;46.00
70184;DHT22;57554;51.546;6.776;2022-07-26T11:56:12;27.60;45.80
70184;DHT22;57554;51.546;6.776;2022-07-26T11:58:40;27.90;45.10
70184;DHT22;57554;51.546;6.776;2022-07-26T12:01:07;28.20;45.00
70184;DHT22;57554;51.546;6.776;2022-07-26T12:03:38;28.70;45.80
70184;DHT22;57554;51.546;6.776;2022-07-26T12:06:10;29.10;43.20
70184;DHT22;57554;51.546;6.776;2022-07-26T12:08:40;29.30;43.50
70184;DHT22;57554;51.546;6.776;2022-07-26T12:11:06;29.60;42.50
70184;DHT22;57554;51.546;6.776;2022-07-26T12:13:47;29.90;41.20
70184;DHT22;57554;51.546;6.776;2022-07-26T12:16:13;30.00;40.60
70184;DHT22;57554;51.546;6.776;2022-07-26T12:18:57;29.90;39.90
70184;DHT22;57554;51.546;6.776;2022-07-26T12:21:37;29.80;40.00
70184;DHT22;57554;51.546;6.776;2022-07-26T12:24:03;29.70;40.10
70184;DHT22;57554;51.546;6.776;2022-07-26T12:26:29;29.60;40.10
70184;DHT22;57554;51.546;6.776;2022-07-26T12:28:55;29.50;40.50
70184;DHT22;57554;51.546;6.776;2022-07-26T12:31:23;29.30;38.70
70184;DHT22;57554;51.546;6.776;2022-07-26T12:33:49;29.00;39.50
70184;DHT22;57554;51.546;6.776;2022-07-26T12:36:22;28.80;40.20
70184;DHT22;57554;51.546;6.776;2022-07-26T12:38:48;28.70;39.30
70184;DHT22;57554;51.546;6.776;2022-07-26T12:41:34;28.30;39.70
70184;DHT22;57554;51.546;6.776;2022-07-26T12:44:00;28.10;40.10
70184;DHT22;57554;51.546;6.776;2022-07-26T12:46:26;27.90;41.30
70184;DHT22;57554;51.546;6.776;2022-07-26T12:48:52;27.80;40.40
70184;DHT22;57554;51.546;6.776;2022-07-26T12:51:17;27.70;41.50
70184;DHT22;57554;51.546;6.776;2022-07-26T12:53:43;27.70;41.90
70184;DHT22;57554;51.546;6.776;2022-07-26T12:56:08;27.70;42.40
70184;DHT22;57554;51.546;6.776;2022-07-26T12:58:34;27.80;41.80
70184;DHT22;57554;51.546;6.776;2022-07-26T13:01:00;27.90;42.70
70184;DHT22;57554;51.546;6.776;2022-07-26T13:03:26;28.10;42.40
70184;DHT22;57554;51.546;6.776;2022-07-26T13:05:52;28.10;41.10
70184;DHT22;57554;51.546;6.776;2022-07-26T13:08:18;28.00;41.40
70184;DHT22;57554;51.546;6.776;2022-07-26T13:10:43;28.00;41.70
70184;DHT22;57554;51.546;6.776;2022-07-26T13:13:09;27.80;39.80
70184;DHT22;57554;51.546;6.776;2022-07-26T13:15:34;27.40;40.10
70184;DHT22;57554;51.546;6.776;2022-07-26T13:18:00;27.10;41.20
70184;DHT22;57554;51.546;6.776;2022-07-26T13:20:26;26.80;41.60
70184;DHT22;57554;51.546;6.776;2022-07-26T13:22:52;26.60;42.60
70184;DHT22;57554;51.546;6.776;2022-07-26T13:25:17;26.60;43.60
70184;DHT22;57554;51.546;6.776;2022-07-26T13:27:43;26.70;43.90
70184;DHT22;57554;51.546;6.776;2022-07-26T13:30:09;26.80;44.10
70184;DHT22;57554;51.546;6.776;2022-07-26T13:32:35;26.70;44.70
70184;DHT22;57554;51.546;6.776;2022-07-26T13:35:00;26.70;44.00
70184;DHT22;57554;51.546;6.776;2022-07-26T13:37:26;26.50;44.10
70184;DHT22;57554;51.546;6.776;2022-07-26T13:39:52;26.40;44.40
70184;DHT22;57554;51.546;6.776;2022-07-26T13:42:17;26.40;44.50
70184;DHT22;57554;51.546;6.776;2022-07-26T13:44:43;26.50;44.90
70184;DHT22;57554;51.546;6.776;2022-07-26T13:47:09;26.60;44.20
70184;DHT22;57554;51.546;6.776;2022-07-26T13:49:35;26.70;44.00
70184;DHT22;57554;51.546;6.776;2022-07-26T13:52:00;26.70;43.60
70184;DHT22;57554;51.546;6.776;2022-07-26T13:54:31;26.70;43.90
70184;DHT22;57554;51.546;6.776;2022-07-26T13:56:59;26.70;43.40
70184;DHT22;57554;51.546;6.776;2022-07-26T13:59:26;26.70;43.00
70184;DHT22;57554;51.546;6.776;2022-07-26T14:01:52;26.70;43.00
70184;DHT22;57554;51.546;6.776;2022-07-26T14:04:19;26.80;42.70
70184;DHT22;57554;51.546;6.776;2022-07-26T14:06:45;26.70;42.00
70184;DHT22;57554;51.546;6.776;2022-07-26T14:09:12;26.70;42.20
70184;DHT22;57554;51.546;6.776;2022-07-26T14:11:38;26.50;42.50
70184;DHT22;57554;51.546;6.776;2022-07-26T14:14:05;26.50;42.00
70184;DHT22;57554;51.546;6.776;2022-07-26T14:16:31;26.40;42.80
70184;DHT22;57554;51.546;6.776;2022-07-26T14:18:57;26.40;42.50
70184;DHT22;57554;51.546;6.776;2022-07-26T14:21:24;26.30;42.60
70184;DHT22;57554;51.546;6.776;2022-07-26T14:23:50;26.20;42.20
70184;DHT22;57554;51.546;6.776;2022-07-26T14:26:16;26.20;42.70
70184;DHT22;57554;51.546;6.776;2022-07-26T14:28:43;26.00;42.50
70184;DHT22;57554;51.546;6.776;2022-07-26T14:31:08;25.90;42.70
70184;DHT22;57554;51.546;6.776;2022-07-26T14:33:34;25.80;43.30
70184;DHT22;57554;51.546;6.776;2022-07-26T14:35:59;25.70;43.20
70184;DHT22;57554;51.546;6.776;2022-07-26T14:38:25;25.70;43.20
70184;DHT22;57554;51.546;6.776;2022-07-26T14:40:53;25.60;43.40
70184;DHT22;57554;51.546;6.776;2022-07-26T14:43:19;25.50;43.50
70184;DHT22;57554;51.546;6.776;2022-07-26T14:45:45;25.50;43.60
70184;DHT22;57554;51.546;6.776;2022-07-26T14:48:13;25.50;43.70
70184;DHT22;57554;51.546;6.776;2022-07-26T14:50:39;25.40;44.10
70184;DHT22;57554;51.546;6.776;2022-07-26T14:53:05;25.40;43.80
70184;DHT22;57554;51.546;6.776;2022-07-26T14:55:31;25.40;43.90
70184;DHT22;57554;51.546;6.776;2022-07-26T14:57:57;25.40;44.00
70184;DHT22;57554;51.546;6.776;2022-07-26T15:00:22;25.40;44.10
70184;DHT22;57554;51.546;6.776;2022-07-26T15:02:49;25.40;44.00
70184;DHT22;57554;51.546;6.776;2022-07-26T15:05:16;25.40;44.50
70184;DHT22;57554;51.546;6.776;2022-07-26T15:07:42;25.40;44.60
70184;DHT22;57554;51.546;6.776;2022-07-26T15:10:11;25.40;44.50
70184;DHT22;57554;51.546;6.776;2022-07-26T15:12:37;25.30;45.10
70184;DHT22;57554;51.546;6.776;2022-07-26T15:15:04;25.30;45.20
70184;DHT22;57554;51.546;6.776;2022-07-26T15:17:30;25.20;45.30
70184;DHT22;57554;51.546;6.776;2022-07-26T15:19:56;25.20;45.60
70184;DHT22;57554;51.546;6.776;2022-07-26T15:22:21;25.20;45.90
70184;DHT22;57554;51.546;6.776;2022-07-26T15:24:47;25.30;46.20
70184;DHT22;57554;51.546;6.776;2022-07-26T15:27:13;25.30;45.80
70184;DHT22;57554;51.546;6.776;2022-07-26T15:29:38;25.30;45.90
70184;DHT22;57554;51.546;6.776;2022-07-26T15:32:04;25.20;45.30
70184;DHT22;57554;51.546;6.776;2022-07-26T15:34:31;25.10;45.00
70184;DHT22;57554;51.546;6.776;2022-07-26T15:36:57;25.00;45.60
70184;DHT22;57554;51.546;6.776;2022-07-26T15:39:22;24.90;44.80
70184;DHT22;57554;51.546;6.776;2022-07-26T15:41:48;24.70;45.30
70184;DHT22;57554;51.546;6.776;2022-07-26T15:44:16;24.50;45.90
70184;DHT22;57554;51.546;6.776;2022-07-26T15:46:41;24.40;46.20
70184;DHT22;57554;51.546;6.776;2022-07-26T15:49:10;24.30;46.40
70184;DHT22;57554;51.546;6.776;2022-07-26T15:51:37;24.20;46.20